Flugplatz Norvenich Airport

Bericht für ETNN

vom 20.10. um 18:20 UTC

Wind 5 kt aus 290°

Sichtweite 3000 m

schwacher Regen

feuchter Dunst

aufgelockert bewölkt in 100 ft

bedeckt in 300 ft

Temperatur 12.0°C

Taupunkt 11.0°C

Luftfeuchtigkeit 94%

Luftdruck 1009 hPa

ETNN 201820Z 29005KT 3000 -RA BR SCT001 OVC003 12/11 Q1009 RERA YLO
Keine Prognose (TAF) verfügbar.
Impressum